sensor_id;sensor_type;location;lat;lon;timestamp;P1;durP1;ratioP1;P2;durP2;ratioP2
9306;SDS011;4691;47.612;7.610;2023-02-01T00:00:44;17.52;;;7.80;;
9306;SDS011;4691;47.612;7.610;2023-02-01T00:03:09;17.40;;;8.65;;
9306;SDS011;4691;47.612;7.610;2023-02-01T00:05:36;16.85;;;8.63;;
9306;SDS011;4691;47.612;7.610;2023-02-01T00:08:01;15.15;;;8.57;;
9306;SDS011;4691;47.612;7.610;2023-02-01T00:10:26;14.48;;;8.48;;
9306;SDS011;4691;47.612;7.610;2023-02-01T00:12:52;17.30;;;8.63;;
9306;SDS011;4691;47.612;7.610;2023-02-01T00:15:17;17.42;;;8.93;;
9306;SDS011;4691;47.612;7.610;2023-02-01T00:17:43;14.70;;;8.18;;
9306;SDS011;4691;47.612;7.610;2023-02-01T00:20:08;13.45;;;8.18;;
9306;SDS011;4691;47.612;7.610;2023-02-01T00:22:34;16.30;;;8.82;;
9306;SDS011;4691;47.612;7.610;2023-02-01T00:24:59;18.10;;;8.88;;
9306;SDS011;4691;47.612;7.610;2023-02-01T00:27:25;18.58;;;8.95;;
9306;SDS011;4691;47.612;7.610;2023-02-01T00:29:50;16.35;;;8.65;;
9306;SDS011;4691;47.612;7.610;2023-02-01T00:32:15;21.02;;;8.70;;
9306;SDS011;4691;47.612;7.610;2023-02-01T00:34:41;18.23;;;9.43;;
9306;SDS011;4691;47.612;7.610;2023-02-01T00:37:06;24.67;;;9.63;;
9306;SDS011;4691;47.612;7.610;2023-02-01T00:39:32;18.02;;;9.20;;
9306;SDS011;4691;47.612;7.610;2023-02-01T00:41:57;17.27;;;9.52;;
9306;SDS011;4691;47.612;7.610;2023-02-01T00:44:22;18.63;;;10.15;;
9306;SDS011;4691;47.612;7.610;2023-02-01T00:46:48;17.23;;;9.05;;
9306;SDS011;4691;47.612;7.610;2023-02-01T00:49:13;18.40;;;9.32;;
9306;SDS011;4691;47.612;7.610;2023-02-01T00:51:38;21.88;;;9.70;;
9306;SDS011;4691;47.612;7.610;2023-02-01T00:54:03;16.38;;;8.90;;
9306;SDS011;4691;47.612;7.610;2023-02-01T00:56:29;15.20;;;8.43;;
9306;SDS011;4691;47.612;7.610;2023-02-01T00:58:54;19.13;;;9.68;;
9306;SDS011;4691;47.612;7.610;2023-02-01T01:01:24;17.83;;;9.18;;
9306;SDS011;4691;47.612;7.610;2023-02-01T01:03:52;14.95;;;8.93;;
9306;SDS011;4691;47.612;7.610;2023-02-01T01:06:22;17.70;;;8.98;;
9306;SDS011;4691;47.612;7.610;2023-02-01T01:08:50;19.88;;;10.15;;
9306;SDS011;4691;47.612;7.610;2023-02-01T01:11:18;17.60;;;9.35;;
9306;SDS011;4691;47.612;7.610;2023-02-01T01:13:48;18.15;;;9.63;;
9306;SDS011;4691;47.612;7.610;2023-02-01T01:18:40;17.85;;;9.60;;
9306;SDS011;4691;47.612;7.610;2023-02-01T01:21:06;21.17;;;10.25;;
9306;SDS011;4691;47.612;7.610;2023-02-01T01:23:33;16.75;;;9.32;;
9306;SDS011;4691;47.612;7.610;2023-02-01T01:26:00;16.13;;;9.38;;
9306;SDS011;4691;47.612;7.610;2023-02-01T01:28:26;18.38;;;9.38;;
9306;SDS011;4691;47.612;7.610;2023-02-01T01:30:51;16.58;;;9.05;;
9306;SDS011;4691;47.612;7.610;2023-02-01T01:33:16;17.70;;;9.23;;
9306;SDS011;4691;47.612;7.610;2023-02-01T01:35:42;17.67;;;8.98;;
9306;SDS011;4691;47.612;7.610;2023-02-01T01:38:08;17.05;;;8.55;;
9306;SDS011;4691;47.612;7.610;2023-02-01T01:40:34;19.42;;;9.68;;
9306;SDS011;4691;47.612;7.610;2023-02-01T01:43:00;15.85;;;9.02;;
9306;SDS011;4691;47.612;7.610;2023-02-01T01:45:29;19.67;;;9.20;;
9306;SDS011;4691;47.612;7.610;2023-02-01T01:50:57;17.35;;;8.70;;
9306;SDS011;4691;47.612;7.610;2023-02-01T01:53:38;17.60;;;9.23;;
9306;SDS011;4691;47.612;7.610;2023-02-01T01:56:20;17.77;;;9.03;;
9306;SDS011;4691;47.612;7.610;2023-02-01T01:58:45;16.58;;;9.05;;
9306;SDS011;4691;47.612;7.610;2023-02-01T02:01:10;19.15;;;8.63;;
9306;SDS011;4691;47.612;7.610;2023-02-01T02:03:40;20.33;;;9.18;;
9306;SDS011;4691;47.612;7.610;2023-02-01T02:08:57;21.67;;;9.00;;
9306;SDS011;4691;47.612;7.610;2023-02-01T02:11:22;20.10;;;10.52;;
9306;SDS011;4691;47.612;7.610;2023-02-01T02:13:48;16.95;;;9.55;;
9306;SDS011;4691;47.612;7.610;2023-02-01T02:19:17;17.90;;;9.18;;
9306;SDS011;4691;47.612;7.610;2023-02-01T02:27:14;16.83;;;10.05;;
9306;SDS011;4691;47.612;7.610;2023-02-01T02:33:16;20.17;;;10.52;;
9306;SDS011;4691;47.612;7.610;2023-02-01T02:36:07;21.10;;;11.27;;
9306;SDS011;4691;47.612;7.610;2023-02-01T02:41:19;21.27;;;10.27;;
9306;SDS011;4691;47.612;7.610;2023-02-01T02:44:32;21.98;;;10.07;;
9306;SDS011;4691;47.612;7.610;2023-02-01T02:47:31;24.63;;;10.98;;
9306;SDS011;4691;47.612;7.610;2023-02-01T02:50:49;19.77;;;10.68;;
9306;SDS011;4691;47.612;7.610;2023-02-01T02:53:42;21.17;;;11.13;;
9306;SDS011;4691;47.612;7.610;2023-02-01T02:56:34;20.80;;;10.15;;
9306;SDS011;4691;47.612;7.610;2023-02-01T02:59:20;20.80;;;10.60;;
9306;SDS011;4691;47.612;7.610;2023-02-01T03:02:05;24.58;;;11.98;;
9306;SDS011;4691;47.612;7.610;2023-02-01T03:04:54;21.15;;;10.82;;
9306;SDS011;4691;47.612;7.610;2023-02-01T03:10:20;25.02;;;11.65;;
9306;SDS011;4691;47.612;7.610;2023-02-01T03:13:08;20.95;;;11.77;;
9306;SDS011;4691;47.612;7.610;2023-02-01T03:15:43;22.15;;;11.43;;
9306;SDS011;4691;47.612;7.610;2023-02-01T03:19:35;26.13;;;11.77;;
9306;SDS011;4691;47.612;7.610;2023-02-01T03:22:12;21.75;;;11.63;;
9306;SDS011;4691;47.612;7.610;2023-02-01T03:24:44;26.98;;;12.30;;
9306;SDS011;4691;47.612;7.610;2023-02-01T03:27:18;25.58;;;11.57;;
9306;SDS011;4691;47.612;7.610;2023-02-01T03:32:34;22.23;;;11.07;;
9306;SDS011;4691;47.612;7.610;2023-02-01T03:35:25;23.52;;;11.13;;
9306;SDS011;4691;47.612;7.610;2023-02-01T03:37:53;26.30;;;12.05;;
9306;SDS011;4691;47.612;7.610;2023-02-01T03:40:24;23.98;;;11.88;;
9306;SDS011;4691;47.612;7.610;2023-02-01T03:42:53;22.70;;;11.57;;
9306;SDS011;4691;47.612;7.610;2023-02-01T03:47:52;25.73;;;11.93;;
9306;SDS011;4691;47.612;7.610;2023-02-01T03:50:21;23.65;;;11.90;;
9306;SDS011;4691;47.612;7.610;2023-02-01T03:52:54;20.33;;;11.65;;
9306;SDS011;4691;47.612;7.610;2023-02-01T03:55:24;24.23;;;11.50;;
9306;SDS011;4691;47.612;7.610;2023-02-01T04:00:26;23.23;;;11.50;;
9306;SDS011;4691;47.612;7.610;2023-02-01T04:02:52;25.25;;;11.57;;
9306;SDS011;4691;47.612;7.610;2023-02-01T04:05:18;22.52;;;12.00;;
9306;SDS011;4691;47.612;7.610;2023-02-01T04:07:44;24.50;;;11.75;;
9306;SDS011;4691;47.612;7.610;2023-02-01T04:10:09;21.50;;;10.60;;
9306;SDS011;4691;47.612;7.610;2023-02-01T04:12:35;26.40;;;12.10;;
9306;SDS011;4691;47.612;7.610;2023-02-01T04:15:01;27.15;;;11.48;;
9306;SDS011;4691;47.612;7.610;2023-02-01T04:17:28;27.13;;;11.02;;
9306;SDS011;4691;47.612;7.610;2023-02-01T04:19:53;23.80;;;11.77;;
9306;SDS011;4691;47.612;7.610;2023-02-01T04:22:18;23.65;;;11.07;;
9306;SDS011;4691;47.612;7.610;2023-02-01T04:24:44;25.90;;;11.45;;
9306;SDS011;4691;47.612;7.610;2023-02-01T04:27:09;21.67;;;10.82;;
9306;SDS011;4691;47.612;7.610;2023-02-01T04:29:34;21.77;;;10.82;;
9306;SDS011;4691;47.612;7.610;2023-02-01T04:32:00;24.13;;;10.85;;
9306;SDS011;4691;47.612;7.610;2023-02-01T04:34:25;23.25;;;11.15;;
9306;SDS011;4691;47.612;7.610;2023-02-01T04:36:51;23.15;;;11.05;;
9306;SDS011;4691;47.612;7.610;2023-02-01T04:39:16;23.17;;;9.95;;
9306;SDS011;4691;47.612;7.610;2023-02-01T04:41:42;22.52;;;10.15;;
9306;SDS011;4691;47.612;7.610;2023-02-01T04:44:09;27.33;;;11.55;;
9306;SDS011;4691;47.612;7.610;2023-02-01T04:46:39;22.58;;;10.65;;
9306;SDS011;4691;47.612;7.610;2023-02-01T04:49:04;24.48;;;11.15;;
9306;SDS011;4691;47.612;7.610;2023-02-01T04:51:30;19.35;;;10.50;;
9306;SDS011;4691;47.612;7.610;2023-02-01T04:53:55;23.63;;;10.70;;
9306;SDS011;4691;47.612;7.610;2023-02-01T04:56:20;20.52;;;9.73;;
9306;SDS011;4691;47.612;7.610;2023-02-01T04:58:46;21.25;;;10.77;;
9306;SDS011;4691;47.612;7.610;2023-02-01T05:01:11;19.83;;;10.18;;
9306;SDS011;4691;47.612;7.610;2023-02-01T05:03:36;24.80;;;9.93;;
9306;SDS011;4691;47.612;7.610;2023-02-01T05:06:02;23.55;;;9.73;;
9306;SDS011;4691;47.612;7.610;2023-02-01T05:08:29;25.83;;;10.55;;
9306;SDS011;4691;47.612;7.610;2023-02-01T05:10:55;21.20;;;9.98;;
9306;SDS011;4691;47.612;7.610;2023-02-01T05:13:21;21.83;;;9.98;;
9306;SDS011;4691;47.612;7.610;2023-02-01T05:16:22;22.92;;;10.25;;
9306;SDS011;4691;47.612;7.610;2023-02-01T05:18:47;20.05;;;9.05;;
9306;SDS011;4691;47.612;7.610;2023-02-01T05:21:12;19.92;;;9.13;;
9306;SDS011;4691;47.612;7.610;2023-02-01T05:23:38;22.80;;;10.35;;
9306;SDS011;4691;47.612;7.610;2023-02-01T05:26:23;20.55;;;9.48;;
9306;SDS011;4691;47.612;7.610;2023-02-01T05:28:49;21.67;;;9.13;;
9306;SDS011;4691;47.612;7.610;2023-02-01T05:31:14;21.67;;;9.95;;
9306;SDS011;4691;47.612;7.610;2023-02-01T05:33:40;30.85;;;9.80;;
9306;SDS011;4691;47.612;7.610;2023-02-01T05:36:05;18.13;;;9.43;;
9306;SDS011;4691;47.612;7.610;2023-02-01T05:38:32;18.98;;;8.98;;
9306;SDS011;4691;47.612;7.610;2023-02-01T05:40:57;19.20;;;8.82;;
9306;SDS011;4691;47.612;7.610;2023-02-01T05:43:22;21.00;;;10.18;;
9306;SDS011;4691;47.612;7.610;2023-02-01T05:45:48;16.73;;;9.48;;
9306;SDS011;4691;47.612;7.610;2023-02-01T05:48:13;17.48;;;9.57;;
9306;SDS011;4691;47.612;7.610;2023-02-01T05:50:38;17.30;;;8.95;;
9306;SDS011;4691;47.612;7.610;2023-02-01T05:55:32;19.35;;;9.10;;
9306;SDS011;4691;47.612;7.610;2023-02-01T05:57:57;18.95;;;9.48;;
9306;SDS011;4691;47.612;7.610;2023-02-01T06:00:22;19.10;;;9.52;;
9306;SDS011;4691;47.612;7.610;2023-02-01T06:02:48;19.98;;;9.63;;
9306;SDS011;4691;47.612;7.610;2023-02-01T06:05:13;20.48;;;10.18;;
9306;SDS011;4691;47.612;7.610;2023-02-01T06:07:39;17.88;;;9.63;;
9306;SDS011;4691;47.612;7.610;2023-02-01T06:10:04;17.63;;;9.35;;
9306;SDS011;4691;47.612;7.610;2023-02-01T06:12:30;17.20;;;9.15;;
9306;SDS011;4691;47.612;7.610;2023-02-01T06:14:55;16.52;;;8.15;;
9306;SDS011;4691;47.612;7.610;2023-02-01T06:17:21;17.05;;;8.98;;
9306;SDS011;4691;47.612;7.610;2023-02-01T06:19:46;24.83;;;10.05;;
9306;SDS011;4691;47.612;7.610;2023-02-01T06:22:13;18.83;;;9.60;;
9306;SDS011;4691;47.612;7.610;2023-02-01T06:24:38;18.88;;;9.20;;
9306;SDS011;4691;47.612;7.610;2023-02-01T06:27:04;19.70;;;8.60;;
9306;SDS011;4691;47.612;7.610;2023-02-01T06:29:29;19.45;;;9.88;;
9306;SDS011;4691;47.612;7.610;2023-02-01T06:31:55;17.40;;;9.55;;
9306;SDS011;4691;47.612;7.610;2023-02-01T06:34:20;19.05;;;9.40;;
9306;SDS011;4691;47.612;7.610;2023-02-01T06:36:47;21.17;;;10.80;;
9306;SDS011;4691;47.612;7.610;2023-02-01T06:39:12;14.57;;;8.55;;
9306;SDS011;4691;47.612;7.610;2023-02-01T06:41:40;17.67;;;8.63;;
9306;SDS011;4691;47.612;7.610;2023-02-01T06:44:07;18.60;;;9.10;;
9306;SDS011;4691;47.612;7.610;2023-02-01T06:46:33;17.48;;;8.85;;
9306;SDS011;4691;47.612;7.610;2023-02-01T06:48:58;18.60;;;8.85;;
9306;SDS011;4691;47.612;7.610;2023-02-01T06:51:24;14.40;;;7.68;;
9306;SDS011;4691;47.612;7.610;2023-02-01T06:53:51;18.00;;;9.05;;
9306;SDS011;4691;47.612;7.610;2023-02-01T06:56:17;17.27;;;8.65;;
9306;SDS011;4691;47.612;7.610;2023-02-01T06:58:43;19.20;;;8.45;;
9306;SDS011;4691;47.612;7.610;2023-02-01T07:01:09;16.05;;;8.27;;
9306;SDS011;4691;47.612;7.610;2023-02-01T07:03:35;15.90;;;7.95;;
9306;SDS011;4691;47.612;7.610;2023-02-01T07:06:00;17.75;;;7.13;;
9306;SDS011;4691;47.612;7.610;2023-02-01T07:08:29;15.77;;;7.15;;
9306;SDS011;4691;47.612;7.610;2023-02-01T07:10:56;16.30;;;8.18;;
9306;SDS011;4691;47.612;7.610;2023-02-01T07:13:22;21.42;;;8.23;;
9306;SDS011;4691;47.612;7.610;2023-02-01T07:15:47;18.38;;;7.88;;
9306;SDS011;4691;47.612;7.610;2023-02-01T07:18:16;13.82;;;7.10;;
9306;SDS011;4691;47.612;7.610;2023-02-01T07:20:41;16.10;;;7.25;;
9306;SDS011;4691;47.612;7.610;2023-02-01T07:23:07;11.48;;;5.97;;
9306;SDS011;4691;47.612;7.610;2023-02-01T07:25:35;14.10;;;7.30;;
9306;SDS011;4691;47.612;7.610;2023-02-01T07:28:00;15.75;;;6.43;;
9306;SDS011;4691;47.612;7.610;2023-02-01T07:30:26;13.10;;;6.85;;
9306;SDS011;4691;47.612;7.610;2023-02-01T07:32:51;15.77;;;7.18;;
9306;SDS011;4691;47.612;7.610;2023-02-01T07:35:16;13.13;;;6.15;;
9306;SDS011;4691;47.612;7.610;2023-02-01T07:37:41;13.63;;;5.82;;
9306;SDS011;4691;47.612;7.610;2023-02-01T07:40:07;12.27;;;5.38;;
9306;SDS011;4691;47.612;7.610;2023-02-01T07:42:33;9.35;;;5.18;;
9306;SDS011;4691;47.612;7.610;2023-02-01T07:44:59;26.92;;;10.07;;
9306;SDS011;4691;47.612;7.610;2023-02-01T07:47:24;24.55;;;9.82;;
9306;SDS011;4691;47.612;7.610;2023-02-01T07:49:49;13.05;;;6.13;;
9306;SDS011;4691;47.612;7.610;2023-02-01T07:52:15;15.40;;;6.95;;
9306;SDS011;4691;47.612;7.610;2023-02-01T07:54:43;10.02;;;4.63;;
9306;SDS011;4691;47.612;7.610;2023-02-01T07:57:08;8.60;;;4.22;;
9306;SDS011;4691;47.612;7.610;2023-02-01T07:59:36;10.63;;;3.95;;
9306;SDS011;4691;47.612;7.610;2023-02-01T08:02:21;12.10;;;4.88;;
9306;SDS011;4691;47.612;7.610;2023-02-01T08:04:46;7.55;;;4.13;;
9306;SDS011;4691;47.612;7.610;2023-02-01T08:07:12;10.95;;;5.07;;
9306;SDS011;4691;47.612;7.610;2023-02-01T08:09:37;10.68;;;5.22;;
9306;SDS011;4691;47.612;7.610;2023-02-01T08:12:02;9.43;;;4.60;;
9306;SDS011;4691;47.612;7.610;2023-02-01T08:14:27;9.00;;;4.20;;
9306;SDS011;4691;47.612;7.610;2023-02-01T08:16:53;7.65;;;4.63;;
9306;SDS011;4691;47.612;7.610;2023-02-01T08:19:18;9.60;;;5.80;;
9306;SDS011;4691;47.612;7.610;2023-02-01T08:21:44;11.07;;;4.78;;
9306;SDS011;4691;47.612;7.610;2023-02-01T08:24:09;9.15;;;4.88;;
9306;SDS011;4691;47.612;7.610;2023-02-01T08:26:35;8.05;;;4.35;;
9306;SDS011;4691;47.612;7.610;2023-02-01T08:29:01;10.95;;;5.15;;
9306;SDS011;4691;47.612;7.610;2023-02-01T08:31:29;11.88;;;5.55;;
9306;SDS011;4691;47.612;7.610;2023-02-01T08:33:56;11.05;;;5.63;;
9306;SDS011;4691;47.612;7.610;2023-02-01T08:36:23;10.63;;;5.32;;
9306;SDS011;4691;47.612;7.610;2023-02-01T08:38:50;8.18;;;4.40;;
9306;SDS011;4691;47.612;7.610;2023-02-01T08:41:17;8.23;;;4.63;;
9306;SDS011;4691;47.612;7.610;2023-02-01T08:43:44;10.90;;;4.70;;
9306;SDS011;4691;47.612;7.610;2023-02-01T08:46:10;10.73;;;4.60;;
9306;SDS011;4691;47.612;7.610;2023-02-01T08:48:36;11.00;;;4.75;;
9306;SDS011;4691;47.612;7.610;2023-02-01T08:51:10;8.63;;;4.00;;
9306;SDS011;4691;47.612;7.610;2023-02-01T08:53:37;6.50;;;3.50;;
9306;SDS011;4691;47.612;7.610;2023-02-01T08:56:05;7.32;;;3.70;;
9306;SDS011;4691;47.612;7.610;2023-02-01T08:58:31;7.75;;;3.20;;
9306;SDS011;4691;47.612;7.610;2023-02-01T09:00:56;6.45;;;3.30;;
9306;SDS011;4691;47.612;7.610;2023-02-01T09:03:21;8.05;;;4.00;;
9306;SDS011;4691;47.612;7.610;2023-02-01T09:05:47;8.68;;;4.78;;
9306;SDS011;4691;47.612;7.610;2023-02-01T09:08:12;17.10;;;6.55;;
9306;SDS011;4691;47.612;7.610;2023-02-01T09:10:40;10.57;;;5.00;;
9306;SDS011;4691;47.612;7.610;2023-02-01T09:13:06;10.13;;;5.30;;
9306;SDS011;4691;47.612;7.610;2023-02-01T09:15:32;9.13;;;4.82;;
9306;SDS011;4691;47.612;7.610;2023-02-01T09:17:58;13.02;;;5.30;;
9306;SDS011;4691;47.612;7.610;2023-02-01T09:20:23;9.05;;;4.78;;
9306;SDS011;4691;47.612;7.610;2023-02-01T09:22:49;10.00;;;4.07;;
9306;SDS011;4691;47.612;7.610;2023-02-01T09:25:16;12.38;;;5.18;;
9306;SDS011;4691;47.612;7.610;2023-02-01T09:27:41;9.57;;;5.47;;
9306;SDS011;4691;47.612;7.610;2023-02-01T09:30:07;12.98;;;7.05;;
9306;SDS011;4691;47.612;7.610;2023-02-01T09:32:33;9.88;;;5.30;;
9306;SDS011;4691;47.612;7.610;2023-02-01T09:34:58;8.93;;;5.20;;
9306;SDS011;4691;47.612;7.610;2023-02-01T09:37:23;9.30;;;4.93;;
9306;SDS011;4691;47.612;7.610;2023-02-01T09:39:49;12.98;;;5.10;;
9306;SDS011;4691;47.612;7.610;2023-02-01T09:45:16;8.18;;;4.68;;
9306;SDS011;4691;47.612;7.610;2023-02-01T09:50:19;16.45;;;4.53;;
9306;SDS011;4691;47.612;7.610;2023-02-01T09:53:24;9.98;;;4.63;;
9306;SDS011;4691;47.612;7.610;2023-02-01T09:56:14;11.10;;;4.88;;
9306;SDS011;4691;47.612;7.610;2023-02-01T09:58:55;8.55;;;4.35;;
9306;SDS011;4691;47.612;7.610;2023-02-01T10:01:28;9.73;;;4.63;;
9306;SDS011;4691;47.612;7.610;2023-02-01T10:04:13;10.25;;;4.85;;
9306;SDS011;4691;47.612;7.610;2023-02-01T10:14:56;12.38;;;5.63;;
9306;SDS011;4691;47.612;7.610;2023-02-01T10:17:52;14.70;;;6.43;;
9306;SDS011;4691;47.612;7.610;2023-02-01T10:26:01;9.07;;;4.75;;
9306;SDS011;4691;47.612;7.610;2023-02-01T10:28:52;13.02;;;5.05;;
9306;SDS011;4691;47.612;7.610;2023-02-01T10:31:21;12.38;;;5.13;;
9306;SDS011;4691;47.612;7.610;2023-02-01T10:33:51;9.33;;;4.97;;
9306;SDS011;4691;47.612;7.610;2023-02-01T10:36:25;10.70;;;5.15;;
9306;SDS011;4691;47.612;7.610;2023-02-01T10:38:55;13.82;;;5.60;;
9306;SDS011;4691;47.612;7.610;2023-02-01T10:41:27;11.75;;;5.57;;
9306;SDS011;4691;47.612;7.610;2023-02-01T10:44:05;11.60;;;5.63;;
9306;SDS011;4691;47.612;7.610;2023-02-01T10:46:35;12.93;;;6.40;;
9306;SDS011;4691;47.612;7.610;2023-02-01T10:49:02;21.27;;;6.35;;
9306;SDS011;4691;47.612;7.610;2023-02-01T10:51:40;13.32;;;5.68;;
9306;SDS011;4691;47.612;7.610;2023-02-01T10:54:32;10.90;;;6.05;;
9306;SDS011;4691;47.612;7.610;2023-02-01T10:56:58;14.73;;;6.15;;
9306;SDS011;4691;47.612;7.610;2023-02-01T10:59:25;12.10;;;5.63;;
9306;SDS011;4691;47.612;7.610;2023-02-01T11:01:58;15.70;;;6.70;;
9306;SDS011;4691;47.612;7.610;2023-02-01T11:04:26;18.73;;;7.55;;
9306;SDS011;4691;47.612;7.610;2023-02-01T11:09:48;16.60;;;7.20;;
9306;SDS011;4691;47.612;7.610;2023-02-01T11:12:29;18.02;;;6.65;;
9306;SDS011;4691;47.612;7.610;2023-02-01T11:15:12;19.35;;;6.75;;
9306;SDS011;4691;47.612;7.610;2023-02-01T11:17:51;14.85;;;7.40;;
9306;SDS011;4691;47.612;7.610;2023-02-01T11:20:37;18.65;;;7.43;;
9306;SDS011;4691;47.612;7.610;2023-02-01T11:23:05;23.95;;;7.18;;
9306;SDS011;4691;47.612;7.610;2023-02-01T11:25:31;18.95;;;6.15;;
9306;SDS011;4691;47.612;7.610;2023-02-01T11:28:00;15.50;;;7.15;;
9306;SDS011;4691;47.612;7.610;2023-02-01T11:32:51;22.10;;;7.13;;
9306;SDS011;4691;47.612;7.610;2023-02-01T11:35:20;18.88;;;6.63;;
9306;SDS011;4691;47.612;7.610;2023-02-01T11:37:49;21.13;;;6.60;;
9306;SDS011;4691;47.612;7.610;2023-02-01T11:42:58;20.30;;;7.40;;
9306;SDS011;4691;47.612;7.610;2023-02-01T11:47:56;25.65;;;8.32;;
9306;SDS011;4691;47.612;7.610;2023-02-01T12:02:00;17.92;;;6.53;;
9306;SDS011;4691;47.612;7.610;2023-02-01T12:05:04;27.58;;;9.05;;
9306;SDS011;4691;47.612;7.610;2023-02-01T12:07:47;17.13;;;7.07;;
9306;SDS011;4691;47.612;7.610;2023-02-01T12:10:28;18.13;;;7.28;;
9306;SDS011;4691;47.612;7.610;2023-02-01T12:19:09;21.90;;;7.25;;
9306;SDS011;4691;47.612;7.610;2023-02-01T12:27:54;22.80;;;7.47;;
9306;SDS011;4691;47.612;7.610;2023-02-01T12:47:41;28.60;;;6.47;;
9306;SDS011;4691;47.612;7.610;2023-02-01T12:50:13;19.50;;;6.93;;
9306;SDS011;4691;47.612;7.610;2023-02-01T12:52:47;18.73;;;5.88;;
9306;SDS011;4691;47.612;7.610;2023-02-01T12:55:25;22.60;;;6.43;;
9306;SDS011;4691;47.612;7.610;2023-02-01T13:00:51;23.00;;;7.80;;
9306;SDS011;4691;47.612;7.610;2023-02-01T13:03:41;16.73;;;6.40;;
9306;SDS011;4691;47.612;7.610;2023-02-01T13:06:16;14.25;;;5.72;;
9306;SDS011;4691;47.612;7.610;2023-02-01T13:11:36;19.73;;;7.50;;
9306;SDS011;4691;47.612;7.610;2023-02-01T13:14:05;25.40;;;7.68;;
9306;SDS011;4691;47.612;7.610;2023-02-01T13:16:45;37.40;;;12.43;;
9306;SDS011;4691;47.612;7.610;2023-02-01T13:19:19;32.10;;;10.82;;
9306;SDS011;4691;47.612;7.610;2023-02-01T13:21:51;37.28;;;12.25;;
9306;SDS011;4691;47.612;7.610;2023-02-01T13:27:10;25.48;;;8.82;;
9306;SDS011;4691;47.612;7.610;2023-02-01T13:29:37;26.05;;;9.45;;
9306;SDS011;4691;47.612;7.610;2023-02-01T13:35:03;24.45;;;7.07;;
9306;SDS011;4691;47.612;7.610;2023-02-01T13:45:41;23.42;;;8.60;;
9306;SDS011;4691;47.612;7.610;2023-02-01T13:48:18;21.58;;;8.00;;
9306;SDS011;4691;47.612;7.610;2023-02-01T13:50:49;15.55;;;6.28;;
9306;SDS011;4691;47.612;7.610;2023-02-01T13:53:18;19.45;;;6.85;;
9306;SDS011;4691;47.612;7.610;2023-02-01T13:56:00;22.20;;;6.45;;
9306;SDS011;4691;47.612;7.610;2023-02-01T13:58:38;29.17;;;9.23;;
9306;SDS011;4691;47.612;7.610;2023-02-01T14:03:55;20.50;;;7.53;;
9306;SDS011;4691;47.612;7.610;2023-02-01T14:09:11;28.55;;;8.10;;
9306;SDS011;4691;47.612;7.610;2023-02-01T14:11:54;22.27;;;6.50;;
9306;SDS011;4691;47.612;7.610;2023-02-01T14:21:57;34.47;;;12.02;;
9306;SDS011;4691;47.612;7.610;2023-02-01T14:26:56;35.20;;;9.48;;
9306;SDS011;4691;47.612;7.610;2023-02-01T14:32:04;26.85;;;9.52;;
9306;SDS011;4691;47.612;7.610;2023-02-01T14:34:49;38.63;;;12.23;;
9306;SDS011;4691;47.612;7.610;2023-02-01T14:39:53;22.90;;;7.25;;
9306;SDS011;4691;47.612;7.610;2023-02-01T14:55:45;31.13;;;6.50;;
9306;SDS011;4691;47.612;7.610;2023-02-01T14:58:32;22.20;;;6.43;;
9306;SDS011;4691;47.612;7.610;2023-02-01T15:01:02;16.10;;;6.00;;
9306;SDS011;4691;47.612;7.610;2023-02-01T15:09:10;23.77;;;7.57;;
9306;SDS011;4691;47.612;7.610;2023-02-01T15:14:22;17.27;;;7.25;;
9306;SDS011;4691;47.612;7.610;2023-02-01T15:16:48;25.63;;;7.95;;
9306;SDS011;4691;47.612;7.610;2023-02-01T15:19:24;20.77;;;6.97;;
9306;SDS011;4691;47.612;7.610;2023-02-01T15:21:52;22.40;;;6.78;;
9306;SDS011;4691;47.612;7.610;2023-02-01T15:26:45;28.17;;;7.78;;
9306;SDS011;4691;47.612;7.610;2023-02-01T15:29:11;31.17;;;8.45;;
9306;SDS011;4691;47.612;7.610;2023-02-01T15:31:39;22.23;;;6.78;;
9306;SDS011;4691;47.612;7.610;2023-02-01T15:34:10;21.38;;;6.50;;
9306;SDS011;4691;47.612;7.610;2023-02-01T15:36:36;23.92;;;6.80;;
9306;SDS011;4691;47.612;7.610;2023-02-01T15:44:45;24.75;;;6.78;;
9306;SDS011;4691;47.612;7.610;2023-02-01T15:47:18;24.90;;;6.50;;
9306;SDS011;4691;47.612;7.610;2023-02-01T15:49:53;21.63;;;5.90;;
9306;SDS011;4691;47.612;7.610;2023-02-01T15:54:49;24.27;;;6.65;;
9306;SDS011;4691;47.612;7.610;2023-02-01T15:57:20;27.00;;;7.50;;
9306;SDS011;4691;47.612;7.610;2023-02-01T15:59:55;24.00;;;7.13;;
9306;SDS011;4691;47.612;7.610;2023-02-01T16:02:41;21.85;;;6.18;;
9306;SDS011;4691;47.612;7.610;2023-02-01T16:08:09;23.17;;;6.95;;
9306;SDS011;4691;47.612;7.610;2023-02-01T16:10:41;17.90;;;5.73;;
9306;SDS011;4691;47.612;7.610;2023-02-01T16:13:08;19.00;;;5.80;;
9306;SDS011;4691;47.612;7.610;2023-02-01T16:15:35;19.83;;;6.50;;
9306;SDS011;4691;47.612;7.610;2023-02-01T16:18:00;17.77;;;5.85;;
9306;SDS011;4691;47.612;7.610;2023-02-01T16:20:26;24.90;;;6.40;;
9306;SDS011;4691;47.612;7.610;2023-02-01T16:22:51;15.73;;;5.50;;
9306;SDS011;4691;47.612;7.610;2023-02-01T16:25:16;19.30;;;5.93;;
9306;SDS011;4691;47.612;7.610;2023-02-01T16:27:42;24.50;;;6.85;;
9306;SDS011;4691;47.612;7.610;2023-02-01T16:30:07;22.50;;;6.55;;
9306;SDS011;4691;47.612;7.610;2023-02-01T16:32:34;22.52;;;7.45;;
9306;SDS011;4691;47.612;7.610;2023-02-01T16:35:03;27.33;;;5.80;;
9306;SDS011;4691;47.612;7.610;2023-02-01T16:37:46;20.27;;;6.57;;
9306;SDS011;4691;47.612;7.610;2023-02-01T16:40:15;21.20;;;6.32;;
9306;SDS011;4691;47.612;7.610;2023-02-01T16:42:41;27.73;;;7.03;;
9306;SDS011;4691;47.612;7.610;2023-02-01T16:45:06;24.77;;;7.07;;
9306;SDS011;4691;47.612;7.610;2023-02-01T16:47:33;19.95;;;5.88;;
9306;SDS011;4691;47.612;7.610;2023-02-01T16:50:01;20.17;;;6.28;;
9306;SDS011;4691;47.612;7.610;2023-02-01T16:52:26;22.95;;;6.95;;
9306;SDS011;4691;47.612;7.610;2023-02-01T16:54:52;20.75;;;5.63;;
9306;SDS011;4691;47.612;7.610;2023-02-01T16:57:18;26.15;;;6.10;;
9306;SDS011;4691;47.612;7.610;2023-02-01T16:59:47;21.35;;;6.80;;
9306;SDS011;4691;47.612;7.610;2023-02-01T17:02:13;36.95;;;7.25;;
9306;SDS011;4691;47.612;7.610;2023-02-01T17:04:41;26.73;;;8.82;;
9306;SDS011;4691;47.612;7.610;2023-02-01T17:07:10;30.23;;;7.95;;
9306;SDS011;4691;47.612;7.610;2023-02-01T17:09:38;30.48;;;6.10;;
9306;SDS011;4691;47.612;7.610;2023-02-01T17:12:04;27.05;;;6.78;;
9306;SDS011;4691;47.612;7.610;2023-02-01T17:14:31;28.23;;;7.05;;
9306;SDS011;4691;47.612;7.610;2023-02-01T17:17:00;28.33;;;6.70;;
9306;SDS011;4691;47.612;7.610;2023-02-01T17:19:26;32.17;;;7.10;;
9306;SDS011;4691;47.612;7.610;2023-02-01T17:21:52;24.67;;;5.50;;
9306;SDS011;4691;47.612;7.610;2023-02-01T17:24:21;18.65;;;6.80;;
9306;SDS011;4691;47.612;7.610;2023-02-01T17:26:49;22.73;;;7.43;;
9306;SDS011;4691;47.612;7.610;2023-02-01T17:29:15;29.52;;;7.97;;
9306;SDS011;4691;47.612;7.610;2023-02-01T17:31:43;27.88;;;6.93;;
9306;SDS011;4691;47.612;7.610;2023-02-01T17:34:11;20.75;;;6.35;;
9306;SDS011;4691;47.612;7.610;2023-02-01T17:36:38;19.85;;;6.88;;
9306;SDS011;4691;47.612;7.610;2023-02-01T17:39:06;25.05;;;8.30;;
9306;SDS011;4691;47.612;7.610;2023-02-01T17:41:32;25.00;;;7.05;;
9306;SDS011;4691;47.612;7.610;2023-02-01T17:43:58;26.70;;;8.38;;
9306;SDS011;4691;47.612;7.610;2023-02-01T17:46:23;27.67;;;7.40;;
9306;SDS011;4691;47.612;7.610;2023-02-01T17:48:52;20.85;;;6.35;;
9306;SDS011;4691;47.612;7.610;2023-02-01T17:51:25;27.10;;;7.53;;
9306;SDS011;4691;47.612;7.610;2023-02-01T17:53:52;24.38;;;6.35;;
9306;SDS011;4691;47.612;7.610;2023-02-01T17:56:19;23.35;;;7.40;;
9306;SDS011;4691;47.612;7.610;2023-02-01T17:58:46;20.92;;;7.10;;
9306;SDS011;4691;47.612;7.610;2023-02-01T18:01:14;29.15;;;6.55;;
9306;SDS011;4691;47.612;7.610;2023-02-01T18:03:42;29.38;;;7.35;;
9306;SDS011;4691;47.612;7.610;2023-02-01T18:06:13;28.17;;;8.02;;
9306;SDS011;4691;47.612;7.610;2023-02-01T18:08:41;25.63;;;8.00;;
9306;SDS011;4691;47.612;7.610;2023-02-01T18:11:09;36.60;;;7.78;;
9306;SDS011;4691;47.612;7.610;2023-02-01T18:13:37;22.95;;;6.38;;
9306;SDS011;4691;47.612;7.610;2023-02-01T18:16:02;22.42;;;7.30;;
9306;SDS011;4691;47.612;7.610;2023-02-01T18:18:28;25.60;;;7.22;;